Valley Mills, New York
Current Conditions -  °F | °C
As of 9:53 AM on Friday 28 Nov 2014 (Local Time) from KRME Reporting Station
Light Snow Light Snow  
Wind Chill: 23°   Ceiling: 1800
Heat Index: 23°   Visibility: 1mi
Dew Point: 22°   Wind: 3mph
Humidity: 96%   Direction: 290°WNW
Pressure: 30.2"   Gusts: NA
Location:  42.9826°N, 75.5909°W
Report Text: KRME 281453Z AUTO 29003KT 1SM -SN BR BKN018 OVC024 M05/M06 A3020 RMK AO2 SLP231 P0001 60001 T10501056 51016 RVRNO
Loading
Personal Weather Stations






























Interactive Weather Map New forecast layout! Learn more

10-Day Weather Forecast

Advertisements
Track Severe Weather on mobile